Devers, Texas
Current Conditions -  °F | °C
As of 6:15 AM on Thursday 29 Jan 2015 (Local Time) from KBMT Reporting Station
Moderate Fog Moderate Fog  
Wind Chill:   Ceiling: 100
Heat Index:   Visibility: 0.5mi
Dew Point:   Wind: 0mph
Humidity: 100%   Direction: NA
Pressure: 30.19"   Gusts: NA
Location:  30.03°N, 94.59°W
Report Text: KBMT 291215Z AUTO 00000KT 1/2SM FG OVC001 09/09 A3019 RMK AO2 T00920092
Loading
Personal Weather Stations






























Interactive Weather Map New forecast layout! Learn more

10-Day Weather Forecast

Advertisements
Track Severe Weather on mobile